JFA34A LFBD-LEIB
Flight info
| Callsign | JFA34A |
|---|---|
| Flight time | 1h 19m |
| Altitude | 37000 |
| Route | OBLOC DCT EVNAM DCT PUMAL N859 BCN Z174 CORDA |
| Aircraft | PC24/M-SBDGIRWY/LB2 |
Departure
| Time | 2026-05-08 06:12 |
|---|---|
| Airport | Bordeaux–Mérignac Airport (LFBD) |
Arrival
| Time | 2026-05-08 07:31 |
|---|---|
| Airport | Ibiza Airport (LEIB) |
| Time | Latitude | Longitude | Altitude | Speed | Heading |
|---|---|---|---|---|---|
| 2026-05-08 06:10 | 44.82979 | -0.72070 | 161 ft | 0 kts | 107° |
| 2026-05-08 06:11 | 44.82956 | -0.71965 | 162 ft | 40 kts | 105° |
| 2026-05-08 06:11 | 44.82794 | -0.71192 | 159 ft | 121 kts | 107° |
| 2026-05-08 06:11 | 44.82500 | -0.69834 | 472 ft | 162 kts | 106° |
| 2026-05-08 06:12 | 44.82001 | -0.68354 | 1235 ft | 168 kts | 137° |
| 2026-05-08 06:12 | 44.80925 | -0.67714 | 2011 ft | 176 kts | 175° |
| 2026-05-08 06:12 | 44.79762 | -0.68287 | 2776 ft | 187 kts | 217° |
| 2026-05-08 06:12 | 44.78823 | -0.69541 | 3549 ft | 185 kts | 224° |
| 2026-05-08 06:13 | 44.77900 | -0.70791 | 4298 ft | 183 kts | 217° |
| 2026-05-08 06:13 | 44.76753 | -0.71579 | 5051 ft | 186 kts | 196° |
| 2026-05-08 06:13 | 44.75466 | -0.71754 | 5798 ft | 186 kts | 178° |
| 2026-05-08 06:13 | 44.74164 | -0.71686 | 6550 ft | 189 kts | 179° |
| 2026-05-08 06:14 | 44.72845 | -0.71631 | 7285 ft | 191 kts | 179° |
| 2026-05-08 06:14 | 44.71517 | -0.71567 | 8032 ft | 192 kts | 179° |
| 2026-05-08 06:14 | 44.70233 | -0.71133 | 8770 ft | 196 kts | 147° |
| 2026-05-08 06:14 | 44.69529 | -0.69501 | 9558 ft | 207 kts | 100° |
| 2026-05-08 06:15 | 44.69605 | -0.67403 | 10344 ft | 223 kts | 88° |
| 2026-05-08 06:15 | 44.69653 | -0.65153 | 11130 ft | 238 kts | 94° |
| 2026-05-08 06:15 | 44.69562 | -0.62763 | 11916 ft | 253 kts | 96° |
| 2026-05-08 06:15 | 44.69444 | -0.60228 | 12711 ft | 267 kts | 95° |
| 2026-05-08 06:16 | 44.69341 | -0.57550 | 13529 ft | 281 kts | 94° |
| 2026-05-08 06:16 | 44.69243 | -0.54756 | 14375 ft | 289 kts | 95° |
| 2026-05-08 06:16 | 44.69137 | -0.51923 | 15328 ft | 293 kts | 95° |
| 2026-05-08 06:16 | 44.69025 | -0.49036 | 16248 ft | 299 kts | 94° |
| 2026-05-08 06:17 | 44.68795 | -0.43087 | 18090 ft | 310 kts | 94° |
| 2026-05-08 06:17 | 44.68677 | -0.40042 | 18924 ft | 314 kts | 94° |
| 2026-05-08 06:17 | 44.68393 | -0.37007 | 19735 ft | 315 kts | 110° |
| 2026-05-08 06:18 | 44.67195 | -0.34458 | 20496 ft | 316 kts | 137° |
| 2026-05-08 06:18 | 44.65511 | -0.32451 | 21274 ft | 319 kts | 143° |
| 2026-05-08 06:18 | 44.63794 | -0.30440 | 22060 ft | 324 kts | 140° |
| 2026-05-08 06:18 | 44.62188 | -0.28204 | 22860 ft | 327 kts | 135° |
| 2026-05-08 06:19 | 44.60626 | -0.25858 | 23650 ft | 329 kts | 135° |
| 2026-05-08 06:19 | 44.59013 | -0.23567 | 24334 ft | 330 kts | 137° |
| 2026-05-08 06:19 | 44.57367 | -0.21312 | 25036 ft | 331 kts | 137° |
| 2026-05-08 06:19 | 44.55735 | -0.19039 | 25751 ft | 331 kts | 137° |
| 2026-05-08 06:20 | 44.54133 | -0.16778 | 26452 ft | 331 kts | 137° |
| 2026-05-08 06:20 | 44.52486 | -0.14467 | 26952 ft | 339 kts | 137° |
| 2026-05-08 06:20 | 44.50799 | -0.12114 | 27468 ft | 345 kts | 137° |
| 2026-05-08 06:20 | 44.49084 | -0.09721 | 28003 ft | 351 kts | 137° |
| 2026-05-08 06:21 | 44.47345 | -0.07291 | 28547 ft | 355 kts | 137° |
| 2026-05-08 06:21 | 44.45573 | -0.04819 | 28959 ft | 364 kts | 137° |
| 2026-05-08 06:21 | 44.43761 | -0.02296 | 29379 ft | 371 kts | 137° |
| 2026-05-08 06:21 | 44.41913 | 0.00276 | 29811 ft | 378 kts | 137° |
| 2026-05-08 06:22 | 44.40036 | 0.02887 | 30209 ft | 383 kts | 137° |
| 2026-05-08 06:22 | 44.38132 | 0.05532 | 30576 ft | 388 kts | 137° |
| 2026-05-08 06:22 | 44.36204 | 0.08209 | 30945 ft | 393 kts | 137° |
| 2026-05-08 06:22 | 44.34254 | 0.10911 | 31319 ft | 397 kts | 137° |
| 2026-05-08 06:23 | 44.32289 | 0.13634 | 31703 ft | 400 kts | 138° |
| 2026-05-08 06:23 | 44.30302 | 0.16383 | 32090 ft | 403 kts | 138° |
| 2026-05-08 06:23 | 44.28305 | 0.19144 | 32477 ft | 405 kts | 138° |
| 2026-05-08 06:23 | 44.26297 | 0.21917 | 32873 ft | 407 kts | 138° |
| 2026-05-08 06:24 | 44.24281 | 0.24700 | 33271 ft | 408 kts | 138° |
| 2026-05-08 06:24 | 44.22255 | 0.27491 | 33677 ft | 409 kts | 138° |
| 2026-05-08 06:24 | 44.20251 | 0.30250 | 33994 ft | 412 kts | 139° |
| 2026-05-08 06:24 | 44.18200 | 0.33070 | 34233 ft | 416 kts | 139° |
| 2026-05-08 06:25 | 44.16132 | 0.35912 | 34477 ft | 419 kts | 139° |
| 2026-05-08 06:25 | 44.14049 | 0.38772 | 34727 ft | 422 kts | 139° |
| 2026-05-08 06:25 | 44.11953 | 0.41645 | 34973 ft | 424 kts | 139° |
| 2026-05-08 06:25 | 44.09847 | 0.44529 | 35223 ft | 426 kts | 139° |
| 2026-05-08 06:26 | 44.07734 | 0.47420 | 35471 ft | 427 kts | 139° |
| 2026-05-08 06:26 | 44.05614 | 0.50318 | 35721 ft | 428 kts | 140° |
| 2026-05-08 06:26 | 44.03490 | 0.53218 | 35972 ft | 428 kts | 140° |
| 2026-05-08 06:26 | 44.01365 | 0.56116 | 36226 ft | 429 kts | 140° |
| 2026-05-08 06:27 | 43.99233 | 0.59021 | 36483 ft | 429 kts | 140° |
| 2026-05-08 06:27 | 43.97104 | 0.61918 | 36739 ft | 429 kts | 140° |
| 2026-05-08 06:27 | 43.94968 | 0.64821 | 36957 ft | 430 kts | 140° |
| 2026-05-08 06:27 | 43.92786 | 0.67684 | 36940 ft | 433 kts | 146° |
| 2026-05-08 06:28 | 43.87657 | 0.71970 | 36964 ft | 433 kts | 159° |
| 2026-05-08 06:28 | 43.82374 | 0.76177 | 36964 ft | 444 kts | 151° |
| 2026-05-08 06:29 | 43.77262 | 0.80963 | 36955 ft | 441 kts | 154° |
| 2026-05-08 06:29 | 43.72033 | 0.85376 | 36956 ft | 441 kts | 153° |
| 2026-05-08 06:30 | 43.66886 | 0.89969 | 36950 ft | 439 kts | 153° |
| 2026-05-08 06:30 | 43.61711 | 0.94440 | 36952 ft | 438 kts | 154° |
| 2026-05-08 06:31 | 43.56555 | 0.98952 | 36952 ft | 440 kts | 153° |
| 2026-05-08 06:31 | 43.51363 | 1.03456 | 36955 ft | 442 kts | 154° |
| 2026-05-08 06:32 | 43.46154 | 1.07979 | 36953 ft | 442 kts | 154° |
| 2026-05-08 06:32 | 43.40975 | 1.12462 | 36952 ft | 438 kts | 154° |
| 2026-05-08 06:33 | 43.35807 | 1.16923 | 36951 ft | 440 kts | 154° |
| 2026-05-08 06:33 | 43.30606 | 1.21409 | 36952 ft | 441 kts | 154° |
| 2026-05-08 06:34 | 43.25425 | 1.25869 | 36951 ft | 438 kts | 154° |
| 2026-05-08 06:34 | 43.20266 | 1.30295 | 36955 ft | 438 kts | 154° |
| 2026-05-08 06:35 | 43.15082 | 1.34739 | 36957 ft | 440 kts | 154° |
| 2026-05-08 06:35 | 43.09879 | 1.39188 | 36955 ft | 441 kts | 155° |
| 2026-05-08 06:36 | 43.04731 | 1.43584 | 36951 ft | 438 kts | 155° |
| 2026-05-08 06:36 | 42.99568 | 1.47979 | 36954 ft | 437 kts | 155° |
| 2026-05-08 06:37 | 42.94385 | 1.52382 | 36959 ft | 440 kts | 155° |
| 2026-05-08 06:37 | 42.89182 | 1.56801 | 36956 ft | 440 kts | 155° |
| 2026-05-08 06:38 | 42.84010 | 1.61178 | 36959 ft | 436 kts | 155° |
| 2026-05-08 06:38 | 42.78835 | 1.65547 | 36961 ft | 439 kts | 155° |
| 2026-05-08 06:39 | 42.73642 | 1.69931 | 36968 ft | 439 kts | 155° |
| 2026-05-08 06:39 | 42.68454 | 1.74295 | 36974 ft | 438 kts | 156° |
| 2026-05-08 06:40 | 42.63280 | 1.78640 | 36966 ft | 434 kts | 155° |
| 2026-05-08 06:40 | 42.58145 | 1.82943 | 36963 ft | 434 kts | 156° |
| 2026-05-08 06:41 | 42.53025 | 1.87226 | 36985 ft | 437 kts | 156° |
| 2026-05-08 06:41 | 42.47847 | 1.91552 | 36986 ft | 438 kts | 156° |
| 2026-05-08 06:42 | 42.42660 | 1.95873 | 36981 ft | 437 kts | 156° |
| 2026-05-08 06:42 | 42.37347 | 1.99679 | 36981 ft | 424 kts | 168° |
| 2026-05-08 06:43 | 42.31733 | 2.01324 | 36986 ft | 404 kts | 185° |
| 2026-05-08 06:43 | 42.26128 | 2.01847 | 36999 ft | 405 kts | 185° |
| 2026-05-08 06:44 | 42.20508 | 2.02386 | 36997 ft | 405 kts | 185° |
| 2026-05-08 06:44 | 42.14893 | 2.02916 | 36992 ft | 404 kts | 185° |
| 2026-05-08 06:45 | 42.09293 | 2.03447 | 36992 ft | 402 kts | 185° |
| 2026-05-08 06:45 | 42.03729 | 2.03971 | 36999 ft | 400 kts | 185° |
| 2026-05-08 06:46 | 41.98170 | 2.04495 | 37003 ft | 400 kts | 185° |
| 2026-05-08 06:46 | 41.92618 | 2.05018 | 36993 ft | 399 kts | 185° |
| 2026-05-08 06:47 | 41.87077 | 2.05539 | 36992 ft | 399 kts | 185° |
| 2026-05-08 06:47 | 41.81553 | 2.06056 | 36994 ft | 397 kts | 185° |
| 2026-05-08 06:48 | 41.76045 | 2.06571 | 36993 ft | 396 kts | 185° |
| 2026-05-08 06:48 | 41.70559 | 2.07086 | 36992 ft | 395 kts | 185° |
| 2026-05-08 06:49 | 41.65083 | 2.07595 | 36991 ft | 394 kts | 185° |
| 2026-05-08 06:49 | 41.60547 | 2.08018 | 36987 ft | 393 kts | 185° |
| 2026-05-08 06:50 | 41.54193 | 2.08607 | 36988 ft | 395 kts | 185° |
| 2026-05-08 06:50 | 41.48703 | 2.09117 | 36988 ft | 396 kts | 185° |
| 2026-05-08 06:51 | 41.44105 | 2.09545 | 36990 ft | 394 kts | 185° |
| 2026-05-08 06:51 | 41.38650 | 2.10049 | 36984 ft | 391 kts | 185° |
| 2026-05-08 06:52 | 41.33226 | 2.10547 | 36986 ft | 392 kts | 185° |
| 2026-05-08 06:52 | 41.27807 | 2.11271 | 36989 ft | 397 kts | 181° |
| 2026-05-08 06:53 | 41.22345 | 2.12189 | 36985 ft | 394 kts | 182° |
| 2026-05-08 06:53 | 41.16928 | 2.13096 | 36985 ft | 390 kts | 182° |
| 2026-05-08 06:54 | 41.11542 | 2.13996 | 36986 ft | 391 kts | 182° |
| 2026-05-08 06:54 | 41.06126 | 2.14902 | 36992 ft | 393 kts | 182° |
| 2026-05-08 06:55 | 41.00689 | 2.15810 | 36990 ft | 393 kts | 182° |
| 2026-05-08 06:55 | 40.95286 | 2.16711 | 36992 ft | 390 kts | 182° |
| 2026-05-08 06:56 | 40.89905 | 2.17605 | 36994 ft | 389 kts | 182° |
| 2026-05-08 06:56 | 40.84527 | 2.18497 | 36991 ft | 390 kts | 182° |
| 2026-05-08 06:57 | 40.79119 | 2.19394 | 36992 ft | 392 kts | 182° |
| 2026-05-08 06:57 | 40.73696 | 2.20292 | 36992 ft | 393 kts | 182° |
| 2026-05-08 06:58 | 40.68287 | 2.21188 | 36994 ft | 390 kts | 182° |
| 2026-05-08 06:58 | 40.62915 | 2.22072 | 36990 ft | 388 kts | 182° |
| 2026-05-08 06:59 | 40.57529 | 2.22957 | 36992 ft | 392 kts | 182° |
| 2026-05-08 06:59 | 40.52111 | 2.23850 | 36991 ft | 392 kts | 182° |
| 2026-05-08 07:00 | 40.46737 | 2.24733 | 36989 ft | 391 kts | 182° |
| 2026-05-08 07:00 | 40.41351 | 2.25635 | 36981 ft | 391 kts | 180° |
| 2026-05-08 07:01 | 40.35971 | 2.27041 | 36985 ft | 396 kts | 178° |
| 2026-05-08 07:01 | 40.30556 | 2.28429 | 36989 ft | 396 kts | 178° |
| 2026-05-08 07:02 | 40.25160 | 2.29832 | 36985 ft | 394 kts | 178° |
| 2026-05-08 07:02 | 40.19778 | 2.31219 | 36984 ft | 393 kts | 178° |
| 2026-05-08 07:03 | 40.14412 | 2.32603 | 36986 ft | 393 kts | 178° |
| 2026-05-08 07:03 | 40.09037 | 2.33984 | 36983 ft | 395 kts | 178° |
| 2026-05-08 07:04 | 40.03621 | 2.35377 | 36980 ft | 398 kts | 178° |
| 2026-05-08 07:04 | 39.98204 | 2.36769 | 36933 ft | 397 kts | 178° |
| 2026-05-08 07:05 | 39.95475 | 2.37463 | 36553 ft | 400 kts | 178° |
| 2026-05-08 07:05 | 39.92755 | 2.38163 | 36129 ft | 397 kts | 178° |
| 2026-05-08 07:05 | 39.90047 | 2.38859 | 35701 ft | 396 kts | 178° |
| 2026-05-08 07:05 | 39.87336 | 2.39549 | 35270 ft | 397 kts | 178° |
| 2026-05-08 07:06 | 39.84616 | 2.40241 | 34842 ft | 399 kts | 178° |
| 2026-05-08 07:06 | 39.81880 | 2.40939 | 34411 ft | 402 kts | 177° |
| 2026-05-08 07:06 | 39.79128 | 2.41642 | 33969 ft | 404 kts | 177° |
| 2026-05-08 07:06 | 39.76399 | 2.42234 | 33505 ft | 400 kts | 182° |
| 2026-05-08 07:07 | 39.73607 | 2.42353 | 33064 ft | 393 kts | 189° |
| 2026-05-08 07:07 | 39.70904 | 2.42024 | 32642 ft | 389 kts | 194° |
| 2026-05-08 07:07 | 39.68247 | 2.41607 | 32227 ft | 391 kts | 194° |
| 2026-05-08 07:07 | 39.65526 | 2.41204 | 31798 ft | 385 kts | 194° |
| 2026-05-08 07:08 | 39.62916 | 2.40812 | 31391 ft | 382 kts | 194° |
| 2026-05-08 07:08 | 39.60279 | 2.40402 | 30975 ft | 382 kts | 194° |
| 2026-05-08 07:08 | 39.57667 | 2.39826 | 30563 ft | 378 kts | 200° |
| 2026-05-08 07:08 | 39.55176 | 2.38808 | 30155 ft | 374 kts | 207° |
| 2026-05-08 07:09 | 39.52831 | 2.37386 | 29716 ft | 371 kts | 214° |
| 2026-05-08 07:09 | 39.50669 | 2.35596 | 29309 ft | 368 kts | 220° |
| 2026-05-08 07:09 | 39.48592 | 2.33637 | 28904 ft | 371 kts | 220° |
| 2026-05-08 07:09 | 39.46481 | 2.31680 | 28499 ft | 375 kts | 219° |
| 2026-05-08 07:10 | 39.44355 | 2.29708 | 28090 ft | 377 kts | 219° |
| 2026-05-08 07:10 | 39.42229 | 2.27724 | 27680 ft | 377 kts | 219° |
| 2026-05-08 07:10 | 39.40102 | 2.25742 | 27275 ft | 376 kts | 219° |
| 2026-05-08 07:10 | 39.37982 | 2.23772 | 26865 ft | 374 kts | 219° |
| 2026-05-08 07:11 | 39.35871 | 2.21812 | 26463 ft | 373 kts | 219° |
| 2026-05-08 07:11 | 39.33767 | 2.19858 | 26060 ft | 371 kts | 219° |
| 2026-05-08 07:11 | 39.31701 | 2.17941 | 25665 ft | 370 kts | 219° |
| 2026-05-08 07:11 | 39.29606 | 2.15998 | 25266 ft | 372 kts | 219° |
| 2026-05-08 07:12 | 39.27500 | 2.14047 | 24865 ft | 373 kts | 219° |
| 2026-05-08 07:12 | 39.25391 | 2.12096 | 24460 ft | 372 kts | 219° |
| 2026-05-08 07:12 | 39.23293 | 2.10155 | 24059 ft | 371 kts | 219° |
| 2026-05-08 07:12 | 39.21197 | 2.08218 | 23661 ft | 370 kts | 218° |
| 2026-05-08 07:13 | 39.19107 | 2.06288 | 23221 ft | 369 kts | 219° |
| 2026-05-08 07:13 | 39.17032 | 2.04374 | 22816 ft | 365 kts | 219° |
| 2026-05-08 07:13 | 39.14977 | 2.02478 | 22420 ft | 362 kts | 219° |
| 2026-05-08 07:13 | 39.12938 | 2.00600 | 22033 ft | 359 kts | 219° |
| 2026-05-08 07:14 | 39.10916 | 1.98737 | 21642 ft | 356 kts | 219° |
| 2026-05-08 07:14 | 39.08908 | 1.96890 | 21258 ft | 354 kts | 219° |
| 2026-05-08 07:14 | 39.06913 | 1.95055 | 20877 ft | 351 kts | 219° |
| 2026-05-08 07:14 | 39.04928 | 1.93232 | 20495 ft | 349 kts | 219° |
| 2026-05-08 07:15 | 39.02956 | 1.91420 | 20118 ft | 347 kts | 219° |
| 2026-05-08 07:15 | 39.00994 | 1.89620 | 19743 ft | 345 kts | 219° |
| 2026-05-08 07:15 | 38.99125 | 1.87715 | 19366 ft | 341 kts | 225° |
| 2026-05-08 07:15 | 38.97524 | 1.85486 | 18998 ft | 338 kts | 233° |
| 2026-05-08 07:16 | 38.96185 | 1.83013 | 18635 ft | 336 kts | 238° |
| 2026-05-08 07:16 | 38.94885 | 1.80521 | 18269 ft | 335 kts | 237° |
| 2026-05-08 07:16 | 38.93584 | 1.78053 | 17880 ft | 332 kts | 237° |
| 2026-05-08 07:16 | 38.92297 | 1.75597 | 17517 ft | 331 kts | 237° |
| 2026-05-08 07:17 | 38.91011 | 1.73136 | 17160 ft | 333 kts | 237° |
| 2026-05-08 07:17 | 38.89736 | 1.70704 | 16807 ft | 332 kts | 237° |
| 2026-05-08 07:17 | 38.88447 | 1.68249 | 16448 ft | 332 kts | 237° |
| 2026-05-08 07:17 | 38.87157 | 1.65796 | 16092 ft | 332 kts | 237° |
| 2026-05-08 07:18 | 38.85869 | 1.63346 | 15735 ft | 331 kts | 237° |
| 2026-05-08 07:18 | 38.84601 | 1.60894 | 15379 ft | 328 kts | 240° |
| 2026-05-08 07:18 | 38.83625 | 1.58265 | 15029 ft | 326 kts | 250° |
| 2026-05-08 07:18 | 38.82968 | 1.55481 | 14676 ft | 326 kts | 255° |
| 2026-05-08 07:19 | 38.82354 | 1.52682 | 14325 ft | 326 kts | 255° |
| 2026-05-08 07:19 | 38.81728 | 1.49893 | 13973 ft | 325 kts | 255° |
| 2026-05-08 07:19 | 38.81109 | 1.47110 | 13607 ft | 324 kts | 255° |
| 2026-05-08 07:19 | 38.80492 | 1.44329 | 13242 ft | 323 kts | 255° |
| 2026-05-08 07:20 | 38.79638 | 1.41666 | 12891 ft | 325 kts | 244° |
| 2026-05-08 07:20 | 38.78569 | 1.39118 | 12545 ft | 324 kts | 243° |
| 2026-05-08 07:20 | 38.77522 | 1.36567 | 12192 ft | 323 kts | 244° |
| 2026-05-08 07:20 | 38.76476 | 1.34025 | 11846 ft | 322 kts | 243° |
| 2026-05-08 07:21 | 38.75430 | 1.31501 | 11498 ft | 320 kts | 243° |
| 2026-05-08 07:21 | 38.74387 | 1.28990 | 11154 ft | 319 kts | 243° |
| 2026-05-08 07:21 | 38.73350 | 1.26486 | 10811 ft | 318 kts | 243° |
| 2026-05-08 07:21 | 38.72310 | 1.23994 | 10473 ft | 317 kts | 243° |
| 2026-05-08 07:22 | 38.71272 | 1.21509 | 10133 ft | 316 kts | 243° |
| 2026-05-08 07:22 | 38.70248 | 1.19057 | 9781 ft | 304 kts | 242° |
| 2026-05-08 07:22 | 38.69286 | 1.16752 | 9440 ft | 286 kts | 242° |
| 2026-05-08 07:22 | 38.68362 | 1.14542 | 9139 ft | 278 kts | 243° |
| 2026-05-08 07:23 | 38.67453 | 1.12368 | 8840 ft | 277 kts | 243° |
| 2026-05-08 07:23 | 38.66549 | 1.10197 | 8544 ft | 275 kts | 244° |
| 2026-05-08 07:23 | 38.66188 | 1.07881 | 8187 ft | 261 kts | 275° |
| 2026-05-08 07:23 | 38.66756 | 1.05725 | 7617 ft | 252 kts | 298° |
| 2026-05-08 07:24 | 38.67845 | 1.04047 | 7180 ft | 242 kts | 321° |
| 2026-05-08 07:24 | 38.69303 | 1.03025 | 6750 ft | 239 kts | 342° |
| 2026-05-08 07:24 | 38.70931 | 1.02754 | 6319 ft | 236 kts | 4° |
| 2026-05-08 07:24 | 38.72508 | 1.03253 | 5877 ft | 233 kts | 25° |
| 2026-05-08 07:25 | 38.73821 | 1.04427 | 5452 ft | 230 kts | 45° |
| 2026-05-08 07:25 | 38.74714 | 1.06100 | 5032 ft | 227 kts | 63° |
| 2026-05-08 07:25 | 38.76053 | 1.09748 | 4189 ft | 226 kts | 64° |
| 2026-05-08 07:26 | 38.76731 | 1.11554 | 3795 ft | 223 kts | 63° |
| 2026-05-08 07:26 | 38.77402 | 1.13341 | 3390 ft | 222 kts | 63° |
| 2026-05-08 07:26 | 38.78071 | 1.15123 | 2947 ft | 222 kts | 63° |
| 2026-05-08 07:26 | 38.78793 | 1.16834 | 2776 ft | 217 kts | 61° |
| 2026-05-08 07:27 | 38.79505 | 1.18532 | 2608 ft | 220 kts | 60° |
| 2026-05-08 07:27 | 38.80229 | 1.20237 | 2437 ft | 211 kts | 61° |
| 2026-05-08 07:27 | 38.80890 | 1.21837 | 2258 ft | 196 kts | 61° |
| 2026-05-08 07:27 | 38.81506 | 1.23327 | 2101 ft | 181 kts | 61° |
| 2026-05-08 07:28 | 38.82066 | 1.24685 | 1962 ft | 169 kts | 61° |
| 2026-05-08 07:28 | 38.82628 | 1.26046 | 1755 ft | 174 kts | 60° |
| 2026-05-08 07:28 | 38.83185 | 1.27393 | 1522 ft | 160 kts | 61° |
| 2026-05-08 07:28 | 38.83693 | 1.28624 | 1305 ft | 155 kts | 61° |
| 2026-05-08 07:29 | 38.84192 | 1.29833 | 1099 ft | 153 kts | 60° |
| 2026-05-08 07:29 | 38.84686 | 1.31030 | 928 ft | 146 kts | 60° |
| 2026-05-08 07:29 | 38.85146 | 1.32133 | 712 ft | 132 kts | 60° |
| 2026-05-08 07:29 | 38.85546 | 1.33103 | 548 ft | 115 kts | 60° |
| 2026-05-08 07:30 | 38.85917 | 1.34001 | 379 ft | 109 kts | 62° |
| 2026-05-08 07:30 | 38.86278 | 1.34864 | 266 ft | 114 kts | 60° |
| 2026-05-08 07:30 | 38.86641 | 1.35757 | 110 ft | 108 kts | 62° |
| 2026-05-08 07:30 | 38.86956 | 1.36530 | 25 ft | 86 kts | 59° |
| 2026-05-08 07:31 | 38.87187 | 1.37075 | 25 ft | 54 kts | 61° |
| 2026-05-08 07:31 | 38.87354 | 1.37406 | 23 ft | 39 kts | 38° |
| 2026-05-08 07:31 | 38.87508 | 1.37542 | 23 ft | 8 kts | 31° |
| 2026-05-08 07:31 | 38.87510 | 1.37543 | 23 ft | 0 kts | 31° |
| 2026-05-08 07:32 | 38.87545 | 1.37564 | 23 ft | 15 kts | 11° |
| 2026-05-08 07:32 | 38.87665 | 1.37501 | 23 ft | 14 kts | 332° |
| 2026-05-08 07:33 | 38.87731 | 1.37522 | 23 ft | 10 kts | 59° |
| 2026-05-08 07:33 | 38.87698 | 1.37572 | 23 ft | 4 kts | 200° |
| 2026-05-08 07:33 | 38.87695 | 1.37568 | 23 ft | 0 kts | 231° |
| 2026-05-08 07:33 | 38.87689 | 1.37555 | 27 ft | 0 kts | 240° |